sensor_id;sensor_type;location;lat;lon;timestamp;pressure;altitude;pressure_sealevel;temperature;humidity
43934;BME280;59081;42.706;23.306;2022-11-21T00:00:24;93819.19;;;8.49;100.00
43934;BME280;59081;42.706;23.306;2022-11-21T00:02:50;93784.28;;;8.58;100.00
43934;BME280;59081;42.706;23.306;2022-11-21T00:05:16;93800.75;;;8.58;100.00
43934;BME280;59081;42.706;23.306;2022-11-21T00:07:41;93879.28;;;9.01;100.00
43934;BME280;59081;42.706;23.306;2022-11-21T00:10:08;93796.47;;;8.57;100.00
43934;BME280;59081;42.706;23.306;2022-11-21T00:12:33;93732.44;;;8.33;100.00
43934;BME280;59081;42.706;23.306;2022-11-21T00:14:59;93948.84;;;9.71;100.00
43934;BME280;59081;42.706;23.306;2022-11-21T00:17:24;93898.66;;;9.43;100.00
43934;BME280;59081;42.706;23.306;2022-11-21T00:19:50;93779.53;;;8.86;100.00
43934;BME280;59081;42.706;23.306;2022-11-21T00:22:15;93910.03;;;9.78;100.00
43934;BME280;59081;42.706;23.306;2022-11-21T00:24:41;93797.22;;;8.94;100.00
43934;BME280;59081;42.706;23.306;2022-11-21T00:27:06;93847.66;;;9.42;100.00
43934;BME280;59081;42.706;23.306;2022-11-21T00:29:32;93894.19;;;9.64;100.00
43934;BME280;59081;42.706;23.306;2022-11-21T00:31:57;93862.91;;;9.43;100.00
43934;BME280;59081;42.706;23.306;2022-11-21T00:34:23;93839.88;;;9.41;100.00
43934;BME280;59081;42.706;23.306;2022-11-21T00:36:48;93786.66;;;9.02;100.00
43934;BME280;59081;42.706;23.306;2022-11-21T00:39:14;93821.63;;;9.11;100.00
43934;BME280;59081;42.706;23.306;2022-11-21T00:41:39;93918.75;;;9.77;100.00
43934;BME280;59081;42.706;23.306;2022-11-21T00:44:06;93870.72;;;9.45;100.00
43934;BME280;59081;42.706;23.306;2022-11-21T00:46:31;93822.66;;;9.22;100.00
43934;BME280;59081;42.706;23.306;2022-11-21T00:48:57;93856.06;;;9.39;100.00
43934;BME280;59081;42.706;23.306;2022-11-21T00:51:22;93813.50;;;9.34;100.00
43934;BME280;59081;42.706;23.306;2022-11-21T00:53:48;93734.66;;;8.89;100.00
43934;BME280;59081;42.706;23.306;2022-11-21T00:56:13;93781.03;;;9.15;100.00
43934;BME280;59081;42.706;23.306;2022-11-21T00:58:39;93835.81;;;9.09;100.00
43934;BME280;59081;42.706;23.306;2022-11-21T01:01:09;93900.44;;;9.65;100.00
43934;BME280;59081;42.706;23.306;2022-11-21T01:03:36;93656.53;;;8.12;100.00
43934;BME280;59081;42.706;23.306;2022-11-21T01:06:12;93794.44;;;9.03;100.00
43934;BME280;59081;42.706;23.306;2022-11-21T01:08:40;93728.78;;;8.54;100.00
43934;BME280;59081;42.706;23.306;2022-11-21T01:11:09;93878.91;;;9.63;100.00
43934;BME280;59081;42.706;23.306;2022-11-21T01:13:35;93755.72;;;8.83;100.00
43934;BME280;59081;42.706;23.306;2022-11-21T01:16:09;93766.72;;;8.74;100.00
43934;BME280;59081;42.706;23.306;2022-11-21T01:18:35;93814.16;;;8.93;100.00
43934;BME280;59081;42.706;23.306;2022-11-21T01:21:04;93808.22;;;8.76;100.00
43934;BME280;59081;42.706;23.306;2022-11-21T01:23:30;93881.56;;;9.49;100.00
43934;BME280;59081;42.706;23.306;2022-11-21T01:26:00;93768.09;;;8.79;100.00
43934;BME280;59081;42.706;23.306;2022-11-21T01:28:26;93913.28;;;9.59;100.00
43934;BME280;59081;42.706;23.306;2022-11-21T01:30:52;93851.19;;;9.25;100.00
43934;BME280;59081;42.706;23.306;2022-11-21T01:33:17;93847.22;;;9.26;100.00
43934;BME280;59081;42.706;23.306;2022-11-21T01:35:43;93904.59;;;9.42;100.00
43934;BME280;59081;42.706;23.306;2022-11-21T01:38:08;93728.75;;;8.09;100.00
43934;BME280;59081;42.706;23.306;2022-11-21T01:40:38;93817.97;;;8.86;100.00
43934;BME280;59081;42.706;23.306;2022-11-21T01:43:12;93855.13;;;9.42;100.00
43934;BME280;59081;42.706;23.306;2022-11-21T01:46:10;93854.06;;;9.39;100.00
43934;BME280;59081;42.706;23.306;2022-11-21T01:54:13;93684.28;;;8.14;100.00
43934;BME280;59081;42.706;23.306;2022-11-21T01:57:04;93863.22;;;9.36;100.00
43934;BME280;59081;42.706;23.306;2022-11-21T02:00:02;93671.78;;;8.13;100.00
43934;BME280;59081;42.706;23.306;2022-11-21T02:02:35;93688.84;;;8.35;100.00
43934;BME280;59081;42.706;23.306;2022-11-21T02:05:04;93648.59;;;8.23;100.00
43934;BME280;59081;42.706;23.306;2022-11-21T02:07:34;93734.09;;;8.67;100.00
43934;BME280;59081;42.706;23.306;2022-11-21T02:10:02;93791.88;;;9.00;100.00
43934;BME280;59081;42.706;23.306;2022-11-21T02:12:37;93658.06;;;8.22;100.00
43934;BME280;59081;42.706;23.306;2022-11-21T02:15:04;93837.53;;;9.67;100.00
43934;BME280;59081;42.706;23.306;2022-11-21T02:17:31;93711.06;;;8.73;100.00
43934;BME280;59081;42.706;23.306;2022-11-21T02:20:02;93873.22;;;9.76;100.00
43934;BME280;59081;42.706;23.306;2022-11-21T02:25:20;93860.44;;;9.64;100.00
43934;BME280;59081;42.706;23.306;2022-11-21T02:27:48;93835.59;;;9.40;100.00
43934;BME280;59081;42.706;23.306;2022-11-21T02:30:15;93804.94;;;9.32;100.00
43934;BME280;59081;42.706;23.306;2022-11-21T02:32:43;93725.69;;;8.89;100.00
43934;BME280;59081;42.706;23.306;2022-11-21T02:35:16;93673.25;;;8.68;100.00
43934;BME280;59081;42.706;23.306;2022-11-21T02:37:44;93738.91;;;9.08;100.00
43934;BME280;59081;42.706;23.306;2022-11-21T02:40:24;93776.13;;;9.10;100.00
43934;BME280;59081;42.706;23.306;2022-11-21T02:43:00;93872.91;;;9.83;100.00
43934;BME280;59081;42.706;23.306;2022-11-21T02:45:41;93719.53;;;9.03;100.00
43934;BME280;59081;42.706;23.306;2022-11-21T02:48:07;93796.47;;;9.54;100.00
43934;BME280;59081;42.706;23.306;2022-11-21T02:50:36;93832.06;;;9.91;100.00
43934;BME280;59081;42.706;23.306;2022-11-21T02:53:04;93687.03;;;9.01;100.00
43934;BME280;59081;42.706;23.306;2022-11-21T02:55:30;93764.81;;;9.68;100.00
43934;BME280;59081;42.706;23.306;2022-11-21T02:57:55;93655.78;;;8.99;100.00
43934;BME280;59081;42.706;23.306;2022-11-21T03:00:21;93727.09;;;9.59;100.00
43934;BME280;59081;42.706;23.306;2022-11-21T03:02:47;93647.16;;;8.82;100.00
43934;BME280;59081;42.706;23.306;2022-11-21T03:05:15;93732.44;;;9.30;100.00
43934;BME280;59081;42.706;23.306;2022-11-21T03:07:41;93654.97;;;9.07;100.00
43934;BME280;59081;42.706;23.306;2022-11-21T03:10:07;93669.06;;;9.33;100.00
43934;BME280;59081;42.706;23.306;2022-11-21T03:12:41;93691.66;;;9.61;100.00
43934;BME280;59081;42.706;23.306;2022-11-21T03:15:09;93602.06;;;9.31;99.45
43934;BME280;59081;42.706;23.306;2022-11-21T03:17:35;93695.75;;;9.90;100.00
43934;BME280;59081;42.706;23.306;2022-11-21T03:20:01;93569.38;;;9.09;100.00
43934;BME280;59081;42.706;23.306;2022-11-21T03:22:26;93807.53;;;10.59;100.00
43934;BME280;59081;42.706;23.306;2022-11-21T03:24:52;93799.81;;;10.48;99.76
43934;BME280;59081;42.706;23.306;2022-11-21T03:27:17;93668.25;;;9.90;98.48
43934;BME280;59081;42.706;23.306;2022-11-21T03:29:43;93674.81;;;9.92;98.10
43934;BME280;59081;42.706;23.306;2022-11-21T03:32:08;93722.00;;;10.24;98.17
43934;BME280;59081;42.706;23.306;2022-11-21T03:34:34;93683.47;;;10.24;97.50
43934;BME280;59081;42.706;23.306;2022-11-21T03:36:59;93655.13;;;10.08;97.49
43934;BME280;59081;42.706;23.306;2022-11-21T03:39:25;93663.09;;;10.06;98.46
43934;BME280;59081;42.706;23.306;2022-11-21T03:41:50;93799.47;;;11.08;99.61
43934;BME280;59081;42.706;23.306;2022-11-21T03:44:16;93694.25;;;10.36;100.00
43934;BME280;59081;42.706;23.306;2022-11-21T03:46:43;93734.19;;;10.32;100.00
43934;BME280;59081;42.706;23.306;2022-11-21T03:49:10;93685.41;;;10.08;100.00
43934;BME280;59081;42.706;23.306;2022-11-21T03:51:36;93696.13;;;10.30;100.00
43934;BME280;59081;42.706;23.306;2022-11-21T03:54:02;93670.38;;;10.19;100.00
43934;BME280;59081;42.706;23.306;2022-11-21T03:56:28;93783.03;;;10.85;100.00
43934;BME280;59081;42.706;23.306;2022-11-21T03:58:53;93636.91;;;9.96;100.00
43934;BME280;59081;42.706;23.306;2022-11-21T04:01:22;93667.63;;;10.19;100.00
43934;BME280;59081;42.706;23.306;2022-11-21T04:03:48;93753.25;;;10.74;100.00
43934;BME280;59081;42.706;23.306;2022-11-21T04:06:16;93679.56;;;10.16;100.00
43934;BME280;59081;42.706;23.306;2022-11-21T04:08:42;93768.00;;;10.71;100.00
43934;BME280;59081;42.706;23.306;2022-11-21T04:11:07;93755.75;;;10.72;100.00
43934;BME280;59081;42.706;23.306;2022-11-21T04:13:33;93584.00;;;9.63;100.00
43934;BME280;59081;42.706;23.306;2022-11-21T04:15:59;93663.00;;;10.01;100.00
43934;BME280;59081;42.706;23.306;2022-11-21T04:18:25;93709.31;;;10.41;100.00
43934;BME280;59081;42.706;23.306;2022-11-21T04:20:57;93715.41;;;10.45;100.00
43934;BME280;59081;42.706;23.306;2022-11-21T04:23:24;93620.81;;;9.80;100.00
43934;BME280;59081;42.706;23.306;2022-11-21T04:25:49;93700.53;;;10.52;99.11
43934;BME280;59081;42.706;23.306;2022-11-21T04:28:15;93702.41;;;10.45;98.06
43934;BME280;59081;42.706;23.306;2022-11-21T04:30:40;93699.38;;;10.58;96.65
43934;BME280;59081;42.706;23.306;2022-11-21T04:33:06;93599.97;;;9.88;95.90
43934;BME280;59081;42.706;23.306;2022-11-21T04:35:32;93723.81;;;10.65;95.01
43934;BME280;59081;42.706;23.306;2022-11-21T04:37:57;93697.38;;;10.44;95.16
43934;BME280;59081;42.706;23.306;2022-11-21T04:40:23;93744.44;;;10.85;96.21
43934;BME280;59081;42.706;23.306;2022-11-21T04:42:48;93748.72;;;10.71;94.53
43934;BME280;59081;42.706;23.306;2022-11-21T04:45:15;93807.44;;;10.92;95.60
43934;BME280;59081;42.706;23.306;2022-11-21T04:47:43;93808.75;;;10.81;96.12
43934;BME280;59081;42.706;23.306;2022-11-21T04:50:11;93718.53;;;9.90;97.23
43934;BME280;59081;42.706;23.306;2022-11-21T04:52:37;93808.78;;;10.34;98.01
43934;BME280;59081;42.706;23.306;2022-11-21T04:55:03;93785.31;;;9.91;98.60
43934;BME280;59081;42.706;23.306;2022-11-21T04:57:30;93613.50;;;8.54;98.67
43934;BME280;59081;42.706;23.306;2022-11-21T04:59:56;93591.00;;;8.32;98.94
43934;BME280;59081;42.706;23.306;2022-11-21T05:02:22;93738.13;;;9.08;98.71
43934;BME280;59081;42.706;23.306;2022-11-21T05:04:50;93789.38;;;9.20;99.34
43934;BME280;59081;42.706;23.306;2022-11-21T05:07:16;93614.31;;;8.00;99.49
43934;BME280;59081;42.706;23.306;2022-11-21T05:09:42;93757.13;;;8.79;100.00
43934;BME280;59081;42.706;23.306;2022-11-21T05:12:09;93709.25;;;8.25;100.00
43934;BME280;59081;42.706;23.306;2022-11-21T05:14:53;93660.19;;;7.72;100.00
43934;BME280;59081;42.706;23.306;2022-11-21T05:17:19;93724.50;;;8.08;100.00
43934;BME280;59081;42.706;23.306;2022-11-21T05:19:45;93729.97;;;8.08;100.00
43934;BME280;59081;42.706;23.306;2022-11-21T05:22:11;93764.69;;;8.01;100.00
43934;BME280;59081;42.706;23.306;2022-11-21T05:24:36;93733.25;;;7.66;100.00
43934;BME280;59081;42.706;23.306;2022-11-21T05:27:04;93744.81;;;7.70;99.83
43934;BME280;59081;42.706;23.306;2022-11-21T05:29:30;93691.31;;;6.98;98.74
43934;BME280;59081;42.706;23.306;2022-11-21T05:31:56;93831.53;;;7.86;99.49
43934;BME280;59081;42.706;23.306;2022-11-21T05:34:24;93900.31;;;8.10;99.69
43934;BME280;59081;42.706;23.306;2022-11-21T05:36:51;93727.34;;;6.96;99.44
43934;BME280;59081;42.706;23.306;2022-11-21T05:39:21;93660.88;;;6.34;99.89
43934;BME280;59081;42.706;23.306;2022-11-21T05:41:47;93760.41;;;6.80;99.19
43934;BME280;59081;42.706;23.306;2022-11-21T05:44:13;93815.13;;;7.24;98.82
43934;BME280;59081;42.706;23.306;2022-11-21T05:46:39;93841.88;;;7.20;98.97
43934;BME280;59081;42.706;23.306;2022-11-21T05:49:04;93765.63;;;6.44;99.17
43934;BME280;59081;42.706;23.306;2022-11-21T05:51:33;93862.25;;;6.97;99.34
43934;BME280;59081;42.706;23.306;2022-11-21T05:53:59;93806.53;;;6.47;99.66
43934;BME280;59081;42.706;23.306;2022-11-21T05:56:27;93708.09;;;5.91;99.15
43934;BME280;59081;42.706;23.306;2022-11-21T05:58:56;93732.06;;;5.62;99.47
43934;BME280;59081;42.706;23.306;2022-11-21T06:01:22;93938.03;;;7.00;100.00
43934;BME280;59081;42.706;23.306;2022-11-21T06:04:08;93897.56;;;6.48;100.00
43934;BME280;59081;42.706;23.306;2022-11-21T06:06:33;93869.19;;;6.20;100.00
43934;BME280;59081;42.706;23.306;2022-11-21T06:08:59;93840.34;;;5.81;100.00
43934;BME280;59081;42.706;23.306;2022-11-21T06:11:25;93821.88;;;5.72;100.00
43934;BME280;59081;42.706;23.306;2022-11-21T06:13:52;93807.03;;;5.60;100.00
43934;BME280;59081;42.706;23.306;2022-11-21T06:16:18;93840.13;;;5.63;100.00
43934;BME280;59081;42.706;23.306;2022-11-21T06:18:50;93890.13;;;5.88;100.00
43934;BME280;59081;42.706;23.306;2022-11-21T06:21:24;93873.59;;;5.67;100.00
43934;BME280;59081;42.706;23.306;2022-11-21T06:23:51;93996.59;;;6.43;100.00
43934;BME280;59081;42.706;23.306;2022-11-21T06:26:20;93930.09;;;5.82;100.00
43934;BME280;59081;42.706;23.306;2022-11-21T06:28:46;93931.81;;;5.76;100.00
43934;BME280;59081;42.706;23.306;2022-11-21T06:31:13;93754.75;;;4.57;100.00
43934;BME280;59081;42.706;23.306;2022-11-21T06:33:40;93928.66;;;5.65;100.00
43934;BME280;59081;42.706;23.306;2022-11-21T06:36:11;93829.78;;;4.90;100.00
43934;BME280;59081;42.706;23.306;2022-11-21T06:38:37;93892.53;;;5.19;100.00
43934;BME280;59081;42.706;23.306;2022-11-21T06:41:04;93886.41;;;5.15;100.00
43934;BME280;59081;42.706;23.306;2022-11-21T06:43:30;93880.25;;;4.99;100.00
43934;BME280;59081;42.706;23.306;2022-11-21T06:45:55;94052.00;;;5.92;100.00
43934;BME280;59081;42.706;23.306;2022-11-21T06:48:21;94026.50;;;5.83;100.00
43934;BME280;59081;42.706;23.306;2022-11-21T06:50:47;93927.78;;;5.14;100.00
43934;BME280;59081;42.706;23.306;2022-11-21T06:53:12;93976.28;;;5.22;100.00
43934;BME280;59081;42.706;23.306;2022-11-21T06:55:37;94017.41;;;5.32;100.00
43934;BME280;59081;42.706;23.306;2022-11-21T06:58:03;93966.94;;;4.78;100.00
43934;BME280;59081;42.706;23.306;2022-11-21T07:00:28;94027.59;;;5.15;100.00
43934;BME280;59081;42.706;23.306;2022-11-21T07:02:58;93955.72;;;4.60;100.00
43934;BME280;59081;42.706;23.306;2022-11-21T07:05:24;94112.88;;;5.35;100.00
43934;BME280;59081;42.706;23.306;2022-11-21T07:07:49;94049.69;;;4.88;100.00
43934;BME280;59081;42.706;23.306;2022-11-21T07:10:15;94044.50;;;4.77;100.00
43934;BME280;59081;42.706;23.306;2022-11-21T07:12:40;94100.53;;;4.98;100.00
43934;BME280;59081;42.706;23.306;2022-11-21T07:15:24;93981.53;;;4.07;100.00
43934;BME280;59081;42.706;23.306;2022-11-21T07:17:49;94166.97;;;5.24;100.00
43934;BME280;59081;42.706;23.306;2022-11-21T07:20:15;94039.31;;;4.50;100.00
43934;BME280;59081;42.706;23.306;2022-11-21T07:22:41;94046.47;;;4.44;100.00
43934;BME280;59081;42.706;23.306;2022-11-21T07:25:06;94136.34;;;4.84;100.00
43934;BME280;59081;42.706;23.306;2022-11-21T07:27:32;94043.47;;;4.23;100.00
43934;BME280;59081;42.706;23.306;2022-11-21T07:29:57;94181.56;;;5.17;100.00
43934;BME280;59081;42.706;23.306;2022-11-21T07:32:26;94076.97;;;4.39;100.00
43934;BME280;59081;42.706;23.306;2022-11-21T07:34:52;94194.09;;;4.99;100.00
43934;BME280;59081;42.706;23.306;2022-11-21T07:37:18;94176.19;;;4.98;100.00
43934;BME280;59081;42.706;23.306;2022-11-21T07:39:44;94050.22;;;3.98;100.00
43934;BME280;59081;42.706;23.306;2022-11-21T07:42:09;94157.38;;;4.67;100.00
43934;BME280;59081;42.706;23.306;2022-11-21T07:44:35;94057.25;;;3.79;100.00
43934;BME280;59081;42.706;23.306;2022-11-21T07:47:00;94083.94;;;4.04;100.00
43934;BME280;59081;42.706;23.306;2022-11-21T07:49:26;94217.47;;;5.00;100.00
43934;BME280;59081;42.706;23.306;2022-11-21T07:51:52;94115.38;;;4.29;100.00
43934;BME280;59081;42.706;23.306;2022-11-21T07:54:17;94053.75;;;3.79;100.00
43934;BME280;59081;42.706;23.306;2022-11-21T07:56:43;94187.56;;;4.76;100.00
43934;BME280;59081;42.706;23.306;2022-11-21T07:59:08;94144.72;;;4.41;100.00
43934;BME280;59081;42.706;23.306;2022-11-21T08:01:34;94055.34;;;3.76;100.00
43934;BME280;59081;42.706;23.306;2022-11-21T08:03:59;94082.47;;;4.00;100.00
43934;BME280;59081;42.706;23.306;2022-11-21T08:06:24;94101.69;;;4.12;100.00
43934;BME280;59081;42.706;23.306;2022-11-21T08:08:53;94243.47;;;5.04;100.00
43934;BME280;59081;42.706;23.306;2022-11-21T08:11:19;94261.16;;;5.16;100.00
43934;BME280;59081;42.706;23.306;2022-11-21T08:13:45;94144.84;;;4.34;100.00
43934;BME280;59081;42.706;23.306;2022-11-21T08:16:11;94131.81;;;4.25;100.00
43934;BME280;59081;42.706;23.306;2022-11-21T08:18:36;94118.47;;;4.11;100.00
43934;BME280;59081;42.706;23.306;2022-11-21T08:21:03;94182.75;;;4.48;100.00
43934;BME280;59081;42.706;23.306;2022-11-21T08:23:29;94158.69;;;4.43;100.00
43934;BME280;59081;42.706;23.306;2022-11-21T08:25:55;94268.59;;;5.15;100.00
43934;BME280;59081;42.706;23.306;2022-11-21T08:28:20;94177.13;;;4.35;100.00
43934;BME280;59081;42.706;23.306;2022-11-21T08:30:46;94153.97;;;4.27;100.00
43934;BME280;59081;42.706;23.306;2022-11-21T08:33:11;94241.25;;;4.99;99.94
43934;BME280;59081;42.706;23.306;2022-11-21T08:35:37;94200.72;;;4.81;99.51
43934;BME280;59081;42.706;23.306;2022-11-21T08:38:03;94150.94;;;4.41;99.18
43934;BME280;59081;42.706;23.306;2022-11-21T08:40:30;94205.66;;;4.86;98.46
43934;BME280;59081;42.706;23.306;2022-11-21T08:45:22;94224.88;;;4.99;98.48
43934;BME280;59081;42.706;23.306;2022-11-21T08:47:47;94284.31;;;5.44;98.97
43934;BME280;59081;42.706;23.306;2022-11-21T08:50:13;94259.22;;;5.33;98.82
43934;BME280;59081;42.706;23.306;2022-11-21T08:52:38;94170.03;;;4.94;99.64
43934;BME280;59081;42.706;23.306;2022-11-21T08:55:04;94242.91;;;5.45;98.28
43934;BME280;59081;42.706;23.306;2022-11-21T08:57:30;94144.19;;;4.66;96.21
43934;BME280;59081;42.706;23.306;2022-11-21T08:59:55;94223.16;;;5.05;95.03
43934;BME280;59081;42.706;23.306;2022-11-21T09:02:21;94245.31;;;5.27;94.80
43934;BME280;59081;42.706;23.306;2022-11-21T09:04:46;94240.44;;;5.18;94.18
43934;BME280;59081;42.706;23.306;2022-11-21T09:07:12;94239.75;;;5.14;95.42
43934;BME280;59081;42.706;23.306;2022-11-21T09:09:37;94289.28;;;5.65;96.86
43934;BME280;59081;42.706;23.306;2022-11-21T09:12:03;94310.88;;;5.76;95.04
43934;BME280;59081;42.706;23.306;2022-11-21T09:14:28;94258.38;;;5.36;96.62
43934;BME280;59081;42.706;23.306;2022-11-21T09:17:12;94337.63;;;5.68;94.95
43934;BME280;59081;42.706;23.306;2022-11-21T09:19:57;94228.19;;;4.90;94.59
43934;BME280;59081;42.706;23.306;2022-11-21T09:22:23;94318.78;;;5.38;96.29
43934;BME280;59081;42.706;23.306;2022-11-21T09:24:49;94272.66;;;5.07;97.55
43934;BME280;59081;42.706;23.306;2022-11-21T09:27:14;94167.34;;;4.38;96.06
43934;BME280;59081;42.706;23.306;2022-11-21T09:29:40;94221.75;;;4.45;98.93
43934;BME280;59081;42.706;23.306;2022-11-21T09:32:05;94104.78;;;3.55;99.96
43934;BME280;59081;42.706;23.306;2022-11-21T09:34:31;94335.66;;;4.77;100.00
43934;BME280;59081;42.706;23.306;2022-11-21T09:36:56;94210.22;;;3.98;100.00
43934;BME280;59081;42.706;23.306;2022-11-21T09:39:22;94177.09;;;3.79;100.00
43934;BME280;59081;42.706;23.306;2022-11-21T09:42:08;94175.06;;;3.83;100.00
43934;BME280;59081;42.706;23.306;2022-11-21T09:47:31;94171.19;;;3.81;100.00
43934;BME280;59081;42.706;23.306;2022-11-21T09:50:06;94305.25;;;4.78;100.00
43934;BME280;59081;42.706;23.306;2022-11-21T09:52:43;94322.78;;;4.97;100.00
43934;BME280;59081;42.706;23.306;2022-11-21T09:55:25;94284.31;;;4.72;100.00
43934;BME280;59081;42.706;23.306;2022-11-21T09:57:52;94119.63;;;3.50;100.00
43934;BME280;59081;42.706;23.306;2022-11-21T10:00:23;94197.84;;;3.93;100.00
43934;BME280;59081;42.706;23.306;2022-11-21T10:02:50;94189.72;;;3.90;100.00
43934;BME280;59081;42.706;23.306;2022-11-21T10:05:22;94304.53;;;4.54;100.00
43934;BME280;59081;42.706;23.306;2022-11-21T10:07:52;94239.94;;;4.12;100.00
43934;BME280;59081;42.706;23.306;2022-11-21T10:10:28;94302.84;;;4.41;100.00
43934;BME280;59081;42.706;23.306;2022-11-21T10:13:16;94365.38;;;4.71;100.00
43934;BME280;59081;42.706;23.306;2022-11-21T10:15:49;94309.97;;;4.35;100.00
43934;BME280;59081;42.706;23.306;2022-11-21T10:18:46;94347.69;;;4.60;100.00
43934;BME280;59081;42.706;23.306;2022-11-21T10:24:25;94355.53;;;4.58;100.00
43934;BME280;59081;42.706;23.306;2022-11-21T10:27:01;94331.66;;;4.42;100.00
43934;BME280;59081;42.706;23.306;2022-11-21T10:32:02;94356.44;;;4.71;100.00
43934;BME280;59081;42.706;23.306;2022-11-21T10:34:34;94193.09;;;3.54;100.00
43934;BME280;59081;42.706;23.306;2022-11-21T10:37:15;94286.00;;;4.26;100.00
43934;BME280;59081;42.706;23.306;2022-11-21T10:39:48;94169.47;;;3.47;100.00
43934;BME280;59081;42.706;23.306;2022-11-21T10:42:19;94359.50;;;4.73;100.00
43934;BME280;59081;42.706;23.306;2022-11-21T10:44:49;94381.41;;;4.69;100.00
43934;BME280;59081;42.706;23.306;2022-11-21T10:47:34;94334.44;;;4.38;100.00
43934;BME280;59081;42.706;23.306;2022-11-21T10:52:38;94226.34;;;3.65;100.00
43934;BME280;59081;42.706;23.306;2022-11-21T10:55:12;94243.81;;;3.68;100.00
43934;BME280;59081;42.706;23.306;2022-11-21T10:57:44;94116.53;;;2.82;100.00
43934;BME280;59081;42.706;23.306;2022-11-21T11:02:35;94202.88;;;3.52;100.00
43934;BME280;59081;42.706;23.306;2022-11-21T11:05:21;94243.47;;;3.66;100.00
43934;BME280;59081;42.706;23.306;2022-11-21T11:10:34;94233.13;;;3.57;100.00
43934;BME280;59081;42.706;23.306;2022-11-21T11:13:00;94266.00;;;3.90;100.00
43934;BME280;59081;42.706;23.306;2022-11-21T11:18:28;94222.34;;;3.73;100.00
43934;BME280;59081;42.706;23.306;2022-11-21T11:23:45;94363.50;;;4.68;100.00
43934;BME280;59081;42.706;23.306;2022-11-21T11:26:25;94359.16;;;4.71;99.07
43934;BME280;59081;42.706;23.306;2022-11-21T11:28:52;94338.44;;;4.53;98.67
43934;BME280;59081;42.706;23.306;2022-11-21T11:31:18;94262.56;;;4.09;98.71
43934;BME280;59081;42.706;23.306;2022-11-21T11:38:53;94319.78;;;4.52;97.98
43934;BME280;59081;42.706;23.306;2022-11-21T11:41:28;94352.31;;;4.82;95.18
43934;BME280;59081;42.706;23.306;2022-11-21T11:44:32;94106.59;;;3.19;93.93
43934;BME280;59081;42.706;23.306;2022-11-21T11:47:23;94315.84;;;4.93;92.66
43934;BME280;59081;42.706;23.306;2022-11-21T11:58:03;94244.75;;;4.24;93.16
43934;BME280;59081;42.706;23.306;2022-11-21T12:03:12;94295.63;;;4.50;94.54
43934;BME280;59081;42.706;23.306;2022-11-21T12:05:53;94318.66;;;4.89;92.51
43934;BME280;59081;42.706;23.306;2022-11-21T12:08:32;94354.91;;;5.09;91.07
43934;BME280;59081;42.706;23.306;2022-11-21T12:13:51;94267.50;;;4.93;87.83
43934;BME280;59081;42.706;23.306;2022-11-21T12:16:19;94289.88;;;5.04;88.21
43934;BME280;59081;42.706;23.306;2022-11-21T12:18:59;94247.06;;;5.01;86.76
43934;BME280;59081;42.706;23.306;2022-11-21T12:21:27;94259.59;;;4.99;86.45
43934;BME280;59081;42.706;23.306;2022-11-21T12:23:57;94276.81;;;4.96;86.02
43934;BME280;59081;42.706;23.306;2022-11-21T12:26:43;94323.72;;;5.27;87.55
43934;BME280;59081;42.706;23.306;2022-11-21T12:46:39;94308.63;;;5.02;85.97
43934;BME280;59081;42.706;23.306;2022-11-21T12:57:19;94370.66;;;5.74;85.72
43934;BME280;59081;42.706;23.306;2022-11-21T12:59:57;94384.09;;;5.84;86.23
43934;BME280;59081;42.706;23.306;2022-11-21T13:05:36;94270.19;;;4.77;83.91
43934;BME280;59081;42.706;23.306;2022-11-21T13:08:17;94206.09;;;4.29;84.94
43934;BME280;59081;42.706;23.306;2022-11-21T13:11:33;94397.34;;;5.50;85.46
43934;BME280;59081;42.706;23.306;2022-11-21T13:27:38;94302.72;;;4.48;86.67
43934;BME280;59081;42.706;23.306;2022-11-21T13:32:40;94239.13;;;3.92;86.15
43934;BME280;59081;42.706;23.306;2022-11-21T13:38:06;94404.66;;;4.97;86.43
43934;BME280;59081;42.706;23.306;2022-11-21T13:43:22;94380.16;;;4.74;85.32
43934;BME280;59081;42.706;23.306;2022-11-21T13:45:49;94200.75;;;3.63;84.97
43934;BME280;59081;42.706;23.306;2022-11-21T13:59:33;94412.44;;;4.99;85.00
43934;BME280;59081;42.706;23.306;2022-11-21T14:07:42;94286.25;;;4.12;85.66
43934;BME280;59081;42.706;23.306;2022-11-21T14:12:52;94399.22;;;4.97;85.78
43934;BME280;59081;42.706;23.306;2022-11-21T14:15:42;94325.31;;;4.48;85.89
43934;BME280;59081;42.706;23.306;2022-11-21T14:18:22;94293.00;;;4.27;86.05
43934;BME280;59081;42.706;23.306;2022-11-21T14:20:52;94395.91;;;4.86;85.94
43934;BME280;59081;42.706;23.306;2022-11-21T14:23:22;94319.97;;;4.41;85.33
43934;BME280;59081;42.706;23.306;2022-11-21T14:25:59;94397.84;;;4.85;86.10
43934;BME280;59081;42.706;23.306;2022-11-21T14:28:31;94407.66;;;4.83;85.94
43934;BME280;59081;42.706;23.306;2022-11-21T14:31:02;94229.94;;;3.62;86.51
43934;BME280;59081;42.706;23.306;2022-11-21T14:33:31;94405.22;;;4.88;84.97
43934;BME280;59081;42.706;23.306;2022-11-21T14:38:48;94413.41;;;4.88;86.38
43934;BME280;59081;42.706;23.306;2022-11-21T14:41:24;94317.06;;;4.32;84.91
43934;BME280;59081;42.706;23.306;2022-11-21T14:46:24;94367.63;;;4.57;83.78
43934;BME280;59081;42.706;23.306;2022-11-21T14:48:49;94379.66;;;4.59;83.61
43934;BME280;59081;42.706;23.306;2022-11-21T14:51:18;94397.34;;;4.71;84.05
43934;BME280;59081;42.706;23.306;2022-11-21T14:53:46;94389.31;;;4.64;84.59
43934;BME280;59081;42.706;23.306;2022-11-21T14:56:24;94316.88;;;4.19;83.99
43934;BME280;59081;42.706;23.306;2022-11-21T14:58:55;94405.47;;;4.74;84.59
43934;BME280;59081;42.706;23.306;2022-11-21T15:01:24;94377.59;;;4.43;84.71
43934;BME280;59081;42.706;23.306;2022-11-21T15:06:21;94409.31;;;4.57;82.98
43934;BME280;59081;42.706;23.306;2022-11-21T15:08:48;94343.72;;;4.21;83.10
43934;BME280;59081;42.706;23.306;2022-11-21T15:11:15;94368.53;;;4.27;82.68